Ida Theresa — V7RQ9 — position and weather

sailwx.info

Track history (hours):
 
Tides and Currents Weather Stations Pressure Air Temp Water Temp Dewpoint Dewpoint Depression Visibility Wind Speed Wind Dir Waves Ship Positions

Ida Theresa

Last reported at 2016-Sep-08 20:33 UTC. Time now 2016-Sep-26 07:09 UTC.
Position N 46°14' W 072°46'.
Warning: this ship's position is 17 days out of date.

Length 121 m; draft 5 m.

Type: Ship. MMSI: 538090386.

Date/timePositionNaut miles runAvg speedWind from/ knotsBaromVisibWave heightAir tempDewpointWater temp
2016-Sep-08 20:33N 46°14' W 072°46'1413.7
2016-Sep-08 19:33N 46°05' W 073°01'1312.7
2016-Sep-08 18:34N 45°55' W 073°13'1414.3
2016-Sep-08 17:33N 45°44' W 073°25'1210.7
2016-Sep-08 16:29N 45°33' W 073°31'0 0.0
2016-Sep-08 15:32N 45°33' W 073°31'0 0.0
2016-Sep-08 14:32N 45°33' W 073°31'0 0.0
2016-Sep-08 13:32N 45°33' W 073°31'0 0.0
2016-Sep-08 12:26N 45°33' W 073°31'0 0.0
2016-Sep-08 11:23N 45°33' W 073°31'0 0.0
2016-Sep-08 10:32N 45°33' W 073°31'0 0.0
2016-Sep-08 09:33N 45°33' W 073°31'3 2.8
2016-Sep-08 08:32N 45°30' W 073°31'2 2.1
2016-Sep-08 07:33N 45°28' W 073°30'5 4.7
2016-Sep-08 06:33N 45°24' W 073°34'4 3.7
2016-Sep-08 05:32N 45°24' W 073°39'1010.0
2016-Sep-08 04:33N 45°21' W 073°52'4 3.5
2016-Sep-08 03:34N 45°18' W 073°56'5 5.3
2016-Sep-08 02:33N 45°14' W 074°00'1211.5
2016-Sep-08 01:33N 45°13' W 074°17'  
2016-Sep-05 03:24N 44°11' W 076°19'87 6.5
2016-Sep-04 14:03N 45°01' W 074°40'4 8.1
2016-Sep-04 13:31N 45°03' W 074°34'10 8.8
2016-Sep-04 12:25N 45°09' W 074°23'1010.8
2016-Sep-04 11:31N 45°14' W 074°12'9 9.0
2016-Sep-04 10:33N 45°14' W 073°59'5 4.8
2016-Sep-04 09:33N 45°18' W 073°55'1 1.1
2016-Sep-04 08:33N 45°19' W 073°55'7 7.5
2016-Sep-04 07:33N 45°24' W 073°47'7 6.9
2016-Sep-04 06:33N 45°24' W 073°37'7 3.3
2016-Sep-04 04:33N 45°29' W 073°31'1 1.0
2016-Sep-04 03:30N 45°31' W 073°31'6 6.4
2016-Sep-04 02:33N 45°36' W 073°30'2 2.0
2016-Sep-04 01:29N 45°38' W 073°29'0 0.0
2016-Sep-04 00:32N 45°38' W 073°29'0 0.0
2016-Sep-03 23:29N 45°38' W 073°29'0 0.0
2016-Sep-03 22:32N 45°38' W 073°29'0 0.0
2016-Sep-03 21:32N 45°38' W 073°29'0 0.0
2016-Sep-03 20:32N 45°38' W 073°29'0 0.0
2016-Sep-03 19:32N 45°38' W 073°29'0 0.0
2016-Sep-03 16:23N 45°38' W 073°29'0 0.0
2016-Sep-03 15:32N 45°38' W 073°29'0 0.0
2016-Sep-03 14:32N 45°38' W 073°29'0 0.0
2016-Sep-03 13:29N 45°38' W 073°29'0 0.0
2016-Sep-03 12:32N 45°38' W 073°29'0 0.0
2016-Sep-03 11:32N 45°38' W 073°29'0 0.0
2016-Sep-03 10:32N 45°38' W 073°29'0 0.0
2016-Sep-03 09:32N 45°38' W 073°29'1 1.3
2016-Sep-03 08:33N 45°40' W 073°28'10 9.8
2016-Sep-03 07:33N 45°48' W 073°20'1010.2
2016-Sep-03 06:33N 45°56' W 073°13'9 9.4
2016-Sep-03 05:33N 46°04' W 073°04'1010.0
2016-Sep-03 04:33N 46°11' W 072°54'1110.7
2016-Sep-03 03:33N 46°16' W 072°40'  
Track history (hours):
 
Tides and Currents Weather Stations Pressure Air Temp Water Temp Dewpoint Dewpoint Depression Visibility Wind Speed Wind Dir Waves Ship Positions

Ida Theresa

Last reported at 2016-Sep-08 20:33 UTC. Time now 2016-Sep-26 07:09 UTC.
Position N 46°14' W 072°46'.
Warning: this ship's position is 17 days out of date.

Length 121 m; draft 5 m.

Type: Ship. MMSI: 538090386.

Date/timePositionNaut miles runAvg speedWind from/ knotsBaromVisibWave heightAir tempDewpointWater temp
2016-Sep-08 20:33N 46°14' W 072°46'1413.7
2016-Sep-08 19:33N 46°05' W 073°01'1312.7
2016-Sep-08 18:34N 45°55' W 073°13'1414.3
2016-Sep-08 17:33N 45°44' W 073°25'1210.7
2016-Sep-08 16:29N 45°33' W 073°31'0 0.0
2016-Sep-08 15:32N 45°33' W 073°31'0 0.0
2016-Sep-08 14:32N 45°33' W 073°31'0 0.0
2016-Sep-08 13:32N 45°33' W 073°31'0 0.0
2016-Sep-08 12:26N 45°33' W 073°31'0 0.0
2016-Sep-08 11:23N 45°33' W 073°31'0 0.0
2016-Sep-08 10:32N 45°33' W 073°31'0 0.0
2016-Sep-08 09:33N 45°33' W 073°31'3 2.8
2016-Sep-08 08:32N 45°30' W 073°31'2 2.1
2016-Sep-08 07:33N 45°28' W 073°30'5 4.7
2016-Sep-08 06:33N 45°24' W 073°34'4 3.7
2016-Sep-08 05:32N 45°24' W 073°39'1010.0
2016-Sep-08 04:33N 45°21' W 073°52'4 3.5
2016-Sep-08 03:34N 45°18' W 073°56'5 5.3
2016-Sep-08 02:33N 45°14' W 074°00'1211.5
2016-Sep-08 01:33N 45°13' W 074°17'  
2016-Sep-05 03:24N 44°11' W 076°19'87 6.5
2016-Sep-04 14:03N 45°01' W 074°40'4 8.1
2016-Sep-04 13:31N 45°03' W 074°34'10 8.8
2016-Sep-04 12:25N 45°09' W 074°23'1010.8
2016-Sep-04 11:31N 45°14' W 074°12'9 9.0
2016-Sep-04 10:33N 45°14' W 073°59'5 4.8
2016-Sep-04 09:33N 45°18' W 073°55'1 1.1
2016-Sep-04 08:33N 45°19' W 073°55'7 7.5
2016-Sep-04 07:33N 45°24' W 073°47'7 6.9
2016-Sep-04 06:33N 45°24' W 073°37'7 3.3
2016-Sep-04 04:33N 45°29' W 073°31'1 1.0
2016-Sep-04 03:30N 45°31' W 073°31'6 6.4
2016-Sep-04 02:33N 45°36' W 073°30'2 2.0
2016-Sep-04 01:29N 45°38' W 073°29'0 0.0
2016-Sep-04 00:32N 45°38' W 073°29'0 0.0
2016-Sep-03 23:29N 45°38' W 073°29'0 0.0
2016-Sep-03 22:32N 45°38' W 073°29'0 0.0
2016-Sep-03 21:32N 45°38' W 073°29'0 0.0
2016-Sep-03 20:32N 45°38' W 073°29'0 0.0
2016-Sep-03 19:32N 45°38' W 073°29'0 0.0
2016-Sep-03 16:23N 45°38' W 073°29'0 0.0
2016-Sep-03 15:32N 45°38' W 073°29'0 0.0
2016-Sep-03 14:32N 45°38' W 073°29'0 0.0
2016-Sep-03 13:29N 45°38' W 073°29'0 0.0
2016-Sep-03 12:32N 45°38' W 073°29'0 0.0
2016-Sep-03 11:32N 45°38' W 073°29'0 0.0
2016-Sep-03 10:32N 45°38' W 073°29'0 0.0
2016-Sep-03 09:32N 45°38' W 073°29'1 1.3
2016-Sep-03 08:33N 45°40' W 073°28'10 9.8
2016-Sep-03 07:33N 45°48' W 073°20'1010.2
2016-Sep-03 06:33N 45°56' W 073°13'9 9.4
2016-Sep-03 05:33N 46°04' W 073°04'1010.0
2016-Sep-03 04:33N 46°11' W 072°54'1110.7
2016-Sep-03 03:33N 46°16' W 072°40'  

Dump ship's entire track history